createdAt,value
2023-08-31T00:00:22.261Z,1.40
2023-08-31T00:00:57.808Z,1.20
2023-08-31T00:01:30.275Z,1.70
2023-08-31T00:02:02.811Z,1.30
2023-08-31T00:02:35.182Z,1.30
2023-08-31T00:03:13.277Z,1.50
2023-08-31T00:03:46.117Z,1.30
2023-08-31T00:04:18.569Z,1.23
2023-08-31T00:04:53.512Z,1.30
2023-08-31T00:05:30.047Z,1.30
2023-08-31T00:06:03.545Z,1.40
2023-08-31T00:06:35.956Z,1.60
2023-08-31T00:07:08.360Z,1.70
2023-08-31T00:07:43.787Z,1.10
2023-08-31T00:08:16.156Z,1.33
2023-08-31T00:08:48.611Z,1.47
2023-08-31T00:09:23.617Z,1.53
2023-08-31T00:09:56.701Z,1.40
2023-08-31T00:10:31.090Z,1.40
2023-08-31T00:11:06.750Z,1.13
2023-08-31T00:11:39.125Z,1.30
2023-08-31T00:12:11.471Z,1.63
2023-08-31T00:12:46.701Z,1.63
2023-08-31T00:13:19.037Z,1.50
2023-08-31T00:13:51.485Z,1.20
2023-08-31T00:14:27.035Z,1.30
2023-08-31T00:14:59.468Z,1.27
2023-08-31T00:15:34.073Z,1.50
2023-08-31T00:16:06.544Z,1.23
2023-08-31T00:16:42.093Z,1.27
2023-08-31T00:17:14.740Z,1.10
2023-08-31T00:17:47.157Z,1.20
2023-08-31T00:18:22.286Z,1.30
2023-08-31T00:18:57.442Z,1.07
2023-08-31T00:19:29.956Z,1.17
2023-08-31T00:20:02.307Z,1.30
2023-08-31T00:20:37.368Z,1.20
2023-08-31T00:21:11.586Z,1.30
2023-08-31T00:21:44.255Z,1.00
2023-08-31T00:22:19.253Z,1.33
2023-08-31T00:22:51.665Z,1.33
2023-08-31T00:23:24.513Z,1.33
2023-08-31T00:23:56.888Z,1.17
2023-08-31T00:24:33.185Z,1.20
2023-08-31T00:25:07.069Z,1.30
2023-08-31T00:25:39.417Z,1.17
2023-08-31T00:26:14.409Z,1.10
2023-08-31T00:26:47.242Z,1.27
2023-08-31T00:27:19.704Z,1.30
2023-08-31T00:27:55.058Z,1.20
2023-08-31T00:28:30.105Z,1.20
2023-08-31T00:29:02.458Z,1.50
2023-08-31T00:29:34.881Z,1.30
2023-08-31T00:30:09.269Z,1.40
2023-08-31T00:30:45.913Z,1.40
2023-08-31T00:31:19.709Z,1.40
2023-08-31T00:31:52.528Z,1.30
2023-08-31T00:32:25.050Z,1.50
2023-08-31T00:33:01.478Z,1.40
2023-08-31T00:33:37.266Z,1.30
2023-08-31T00:34:09.670Z,1.50
2023-08-31T00:34:43.784Z,1.57
2023-08-31T00:35:18.836Z,1.50
2023-08-31T00:35:51.216Z,1.40
2023-08-31T00:36:24.359Z,1.50
2023-08-31T00:36:59.304Z,1.73
2023-08-31T00:37:31.752Z,1.90
2023-08-31T00:38:05.919Z,1.53
2023-08-31T00:38:40.877Z,1.27
2023-08-31T00:39:14.623Z,1.60
2023-08-31T00:39:48.677Z,1.30
2023-08-31T00:40:21.161Z,1.40
2023-08-31T00:40:56.468Z,1.57
2023-08-31T00:41:29.164Z,1.53
2023-08-31T00:42:01.876Z,2.00
2023-08-31T00:42:38.874Z,1.40
2023-08-31T00:43:11.581Z,1.80
2023-08-31T00:43:44.067Z,2.10
2023-08-31T00:44:18.025Z,1.77
2023-08-31T00:44:57.213Z,1.80
2023-08-31T00:45:29.625Z,1.70
2023-08-31T00:46:02.374Z,1.63
2023-08-31T00:46:36.064Z,1.70
2023-08-31T00:47:11.611Z,1.93
2023-08-31T00:47:44.028Z,1.70
2023-08-31T00:48:18.208Z,1.73
2023-08-31T00:48:53.184Z,1.57
2023-08-31T00:49:28.588Z,1.70
2023-08-31T00:50:01.631Z,1.90
2023-08-31T00:50:34.309Z,2.00
2023-08-31T00:51:08.812Z,1.57
2023-08-31T00:51:49.872Z,2.00
2023-08-31T00:52:22.358Z,1.90
2023-08-31T00:52:54.805Z,1.73
2023-08-31T00:53:27.251Z,1.53
2023-08-31T00:54:02.226Z,1.73
2023-08-31T00:54:34.740Z,1.40
2023-08-31T00:55:09.677Z,1.63
2023-08-31T00:55:44.976Z,2.10
2023-08-31T00:56:19.329Z,1.67
2023-08-31T00:56:55.155Z,1.80
2023-08-31T00:57:31.437Z,1.60
2023-08-31T00:58:04.005Z,1.70
2023-08-31T00:58:36.660Z,1.80
2023-08-31T00:59:09.037Z,1.57
2023-08-31T00:59:44.022Z,1.70
2023-08-31T01:00:17.856Z,1.80
2023-08-31T01:00:56.837Z,1.87
2023-08-31T01:01:41.876Z,1.93
2023-08-31T01:02:21.791Z,1.60
2023-08-31T01:03:02.515Z,1.53
2023-08-31T01:03:43.580Z,1.70
2023-08-31T01:04:25.607Z,1.40
2023-08-31T01:05:00.721Z,1.60
2023-08-31T01:05:43.933Z,1.93
2023-08-31T01:06:32.891Z,1.40
2023-08-31T01:07:13.354Z,1.60
2023-08-31T01:07:53.565Z,1.80
2023-08-31T01:08:36.963Z,1.60
2023-08-31T01:09:17.849Z,1.50
2023-08-31T01:09:55.656Z,1.57
2023-08-31T01:10:36.004Z,1.80
2023-08-31T01:11:18.815Z,2.30
2023-08-31T01:12:04.305Z,1.80
2023-08-31T01:12:42.064Z,1.90
2023-08-31T01:13:18.935Z,1.63
2023-08-31T01:13:55.276Z,1.50
2023-08-31T01:14:33.774Z,1.83
2023-08-31T01:15:11.042Z,2.20
2023-08-31T01:15:47.668Z,2.07
2023-08-31T01:16:21.351Z,1.77
2023-08-31T01:16:55.005Z,1.90
2023-08-31T01:17:32.638Z,2.17
2023-08-31T01:18:06.024Z,2.00
2023-08-31T01:18:40.985Z,2.20
2023-08-31T01:19:26.628Z,2.30
2023-08-31T01:20:00.647Z,1.90
2023-08-31T01:20:36.181Z,1.60
2023-08-31T01:21:17.202Z,1.90
2023-08-31T01:21:51.877Z,2.13
2023-08-31T01:22:32.355Z,2.40
2023-08-31T01:23:11.682Z,2.00
2023-08-31T01:23:52.582Z,1.80
2023-08-31T01:24:24.976Z,2.00
2023-08-31T01:24:58.141Z,2.03
2023-08-31T01:25:34.380Z,2.00
2023-08-31T01:26:06.913Z,1.90
2023-08-31T01:26:40.056Z,1.90
2023-08-31T01:27:12.618Z,1.97
2023-08-31T01:27:48.051Z,1.90
2023-08-31T01:28:21.717Z,2.17
2023-08-31T01:28:54.503Z,1.80
2023-08-31T01:29:27.119Z,1.77
2023-08-31T01:30:02.346Z,1.80
2023-08-31T01:30:35.700Z,1.90
2023-08-31T01:31:08.562Z,1.80
2023-08-31T01:31:47.526Z,1.80
2023-08-31T01:32:20.354Z,1.73
2023-08-31T01:32:53.222Z,1.90
2023-08-31T01:33:25.756Z,2.10
2023-08-31T01:34:00.730Z,1.90
2023-08-31T01:34:33.194Z,2.07
2023-08-31T01:35:07.365Z,1.80
2023-08-31T01:35:44.462Z,1.90
2023-08-31T01:36:24.641Z,1.90
2023-08-31T01:37:00.372Z,1.90
2023-08-31T01:37:37.498Z,1.87
2023-08-31T01:38:10.557Z,1.70
2023-08-31T01:38:48.239Z,2.20
2023-08-31T01:39:27.870Z,2.00
2023-08-31T01:40:05.417Z,1.87
2023-08-31T01:40:42.399Z,2.37
2023-08-31T01:41:18.973Z,2.17
2023-08-31T01:41:56.684Z,1.90
2023-08-31T01:42:32.240Z,1.70
2023-08-31T01:43:05.443Z,1.77
2023-08-31T01:43:40.626Z,2.40
2023-08-31T01:44:15.732Z,1.90
2023-08-31T01:44:52.434Z,2.07
2023-08-31T01:45:27.271Z,1.83
2023-08-31T01:46:00.116Z,1.83
2023-08-31T01:46:35.325Z,2.00
2023-08-31T01:47:08.528Z,2.00
2023-08-31T01:47:41.104Z,1.90
2023-08-31T01:48:17.804Z,2.00
2023-08-31T01:48:50.186Z,2.23
2023-08-31T01:49:22.554Z,2.07
2023-08-31T01:49:57.254Z,1.73
2023-08-31T01:50:32.781Z,1.90
2023-08-31T01:51:05.145Z,1.80
2023-08-31T01:51:39.275Z,2.27
2023-08-31T01:52:12.689Z,1.80
2023-08-31T01:52:47.679Z,2.10
2023-08-31T01:53:20.110Z,2.03
2023-08-31T01:53:52.900Z,2.00
2023-08-31T01:54:27.929Z,2.17
2023-08-31T01:55:04.464Z,2.00
2023-08-31T01:55:36.948Z,2.00
2023-08-31T01:56:09.349Z,2.50
2023-08-31T01:56:43.041Z,2.20
2023-08-31T01:57:18.985Z,2.30
2023-08-31T01:58:10.118Z,2.33
2023-08-31T01:58:42.539Z,2.40
2023-08-31T01:59:15.128Z,2.30
2023-08-31T01:59:50.636Z,2.03
2023-08-31T02:00:23.189Z,2.40
2023-08-31T02:00:55.737Z,2.00
2023-08-31T02:01:30.834Z,2.00
2023-08-31T02:02:03.712Z,2.00
2023-08-31T02:02:36.421Z,2.10
2023-08-31T02:03:09.589Z,1.90
2023-08-31T02:03:44.884Z,2.10
2023-08-31T02:04:17.257Z,2.13
2023-08-31T02:04:49.626Z,2.13
2023-08-31T02:05:24.583Z,2.33
2023-08-31T02:05:59.093Z,2.30
2023-08-31T02:06:31.498Z,2.40
2023-08-31T02:07:04.234Z,2.10
2023-08-31T02:07:39.174Z,2.13
2023-08-31T02:08:11.619Z,2.17
2023-08-31T02:08:45.570Z,1.90
2023-08-31T02:09:17.916Z,2.00
2023-08-31T02:09:52.864Z,2.13
2023-08-31T02:10:28.539Z,1.70
2023-08-31T02:11:00.904Z,1.83
2023-08-31T02:11:33.457Z,1.60
2023-08-31T02:12:06.503Z,2.00
2023-08-31T02:12:41.903Z,1.70
2023-08-31T02:13:15.680Z,2.00
2023-08-31T02:13:48.176Z,1.53
2023-08-31T02:14:20.608Z,2.00
2023-08-31T02:14:56.821Z,1.87
2023-08-31T02:15:29.204Z,1.90
2023-08-31T02:16:01.720Z,1.90
2023-08-31T02:16:34.215Z,2.00
2023-08-31T02:17:09.441Z,1.73
2023-08-31T02:17:41.973Z,2.00
2023-08-31T02:18:14.344Z,2.17
2023-08-31T02:18:46.882Z,2.10
2023-08-31T02:19:21.848Z,1.93
2023-08-31T02:19:54.210Z,2.00
2023-08-31T02:20:28.022Z,1.67
2023-08-31T02:21:03.042Z,1.93
2023-08-31T02:21:35.404Z,2.20
2023-08-31T02:22:07.764Z,2.23
2023-08-31T02:22:40.135Z,2.40
2023-08-31T02:23:15.283Z,1.90
2023-08-31T02:23:47.652Z,2.10
2023-08-31T02:24:20.028Z,2.40
2023-08-31T02:24:55.005Z,2.30
2023-08-31T02:25:30.883Z,2.50
2023-08-31T02:26:03.270Z,2.40
2023-08-31T02:26:37.626Z,2.67
2023-08-31T02:27:09.984Z,2.60
2023-08-31T02:27:45.053Z,3.00
2023-08-31T02:28:19.193Z,2.70
2023-08-31T02:28:51.629Z,2.63
2023-08-31T02:29:24.166Z,2.50
2023-08-31T02:29:59.126Z,2.30
2023-08-31T02:30:33.163Z,2.40
2023-08-31T02:31:06.608Z,2.33
2023-08-31T02:31:43.006Z,2.30
2023-08-31T02:32:15.395Z,2.40
2023-08-31T02:32:48.560Z,2.20
2023-08-31T02:33:20.965Z,2.40
2023-08-31T02:33:55.945Z,2.27
2023-08-31T02:34:28.302Z,2.10
2023-08-31T02:35:00.926Z,2.30
2023-08-31T02:35:35.955Z,2.00
2023-08-31T02:36:10.715Z,1.80
2023-08-31T02:36:43.108Z,2.00
2023-08-31T02:37:16.470Z,2.33
2023-08-31T02:37:53.343Z,1.90
2023-08-31T02:38:25.900Z,2.10
2023-08-31T02:38:58.357Z,2.20
2023-08-31T02:39:30.775Z,2.30
2023-08-31T02:40:09.879Z,2.43
2023-08-31T02:40:42.361Z,2.17
2023-08-31T02:41:14.717Z,2.10
2023-08-31T02:41:47.081Z,1.93
2023-08-31T02:42:22.062Z,2.00
2023-08-31T02:42:54.449Z,1.73
2023-08-31T02:43:27.145Z,2.40
2023-08-31T02:43:59.623Z,2.40
2023-08-31T02:44:34.568Z,2.47
2023-08-31T02:45:08.075Z,2.00
2023-08-31T02:45:40.458Z,2.30
2023-08-31T02:46:14.004Z,1.90
2023-08-31T02:46:49.313Z,1.87
2023-08-31T02:47:21.728Z,2.20
2023-08-31T02:47:54.398Z,2.33
2023-08-31T02:48:27.256Z,2.10
2023-08-31T02:49:02.311Z,2.13
2023-08-31T02:49:34.734Z,2.20
2023-08-31T02:50:08.846Z,2.30
2023-08-31T02:50:41.252Z,2.27
2023-08-31T02:51:16.428Z,2.40
2023-08-31T02:51:50.533Z,2.20
2023-08-31T02:52:22.923Z,2.63
2023-08-31T02:52:58.729Z,2.10
2023-08-31T02:53:31.270Z,2.30
2023-08-31T02:54:04.858Z,2.60
2023-08-31T02:54:37.242Z,2.00
2023-08-31T02:55:14.974Z,2.30
2023-08-31T02:55:47.439Z,2.30
2023-08-31T02:56:19.842Z,2.20
2023-08-31T02:56:53.046Z,2.23
2023-08-31T02:57:25.425Z,2.37
2023-08-31T02:58:00.450Z,2.40
2023-08-31T02:58:33.429Z,1.97
2023-08-31T02:59:05.901Z,2.33
2023-08-31T02:59:38.415Z,2.30
2023-08-31T03:00:14.995Z,1.70
2023-08-31T03:00:49.526Z,1.80
2023-08-31T03:01:24.515Z,2.23
2023-08-31T03:01:58.579Z,2.30
2023-08-31T03:02:31.247Z,2.50
2023-08-31T03:03:06.450Z,2.37
2023-08-31T03:03:39.102Z,2.00
2023-08-31T03:04:11.625Z,1.87
2023-08-31T03:04:44.019Z,2.50
2023-08-31T03:05:19.218Z,2.20
2023-08-31T03:05:56.650Z,2.10
2023-08-31T03:06:29.041Z,1.70
2023-08-31T03:07:01.741Z,2.40
2023-08-31T03:07:34.134Z,1.93
2023-08-31T03:08:09.840Z,1.80
2023-08-31T03:08:42.276Z,1.43
2023-08-31T03:09:14.973Z,1.60
2023-08-31T03:09:50.891Z,2.00
2023-08-31T03:10:28.636Z,1.93
2023-08-31T03:11:01.037Z,2.10
2023-08-31T03:11:33.395Z,1.80
2023-08-31T03:12:06.445Z,1.50
2023-08-31T03:12:41.411Z,1.70
2023-08-31T03:13:13.918Z,1.80
2023-08-31T03:13:46.496Z,1.60
2023-08-31T03:14:18.953Z,1.50
2023-08-31T03:14:53.947Z,1.27
2023-08-31T03:15:26.370Z,1.60
2023-08-31T03:15:58.880Z,1.50
2023-08-31T03:16:34.119Z,1.70
2023-08-31T03:17:06.497Z,1.70
2023-08-31T03:17:38.939Z,1.83
2023-08-31T03:18:11.392Z,1.50
2023-08-31T03:18:46.374Z,1.43
2023-08-31T03:19:18.938Z,1.70
2023-08-31T03:19:51.745Z,1.77
2023-08-31T03:20:26.725Z,1.50
2023-08-31T03:20:59.299Z,1.40
2023-08-31T03:21:31.653Z,1.80
2023-08-31T03:22:04.283Z,1.40
2023-08-31T03:22:39.291Z,1.70
2023-08-31T03:23:12.744Z,1.60
2023-08-31T03:23:45.356Z,1.40
2023-08-31T03:24:18.517Z,1.53
2023-08-31T03:24:53.523Z,1.73
2023-08-31T03:25:31.661Z,1.53
2023-08-31T03:26:08.481Z,1.70
2023-08-31T03:26:43.530Z,1.63
2023-08-31T03:27:17.201Z,1.90
2023-08-31T03:27:50.359Z,1.70
2023-08-31T03:28:22.716Z,1.90
2023-08-31T03:28:57.701Z,1.67
2023-08-31T03:29:30.341Z,1.50
2023-08-31T03:30:03.213Z,1.50
2023-08-31T03:30:35.672Z,1.60
2023-08-31T03:31:11.248Z,2.10
2023-08-31T03:31:43.658Z,1.43
2023-08-31T03:32:16.077Z,1.27
2023-08-31T03:32:51.101Z,1.47
2023-08-31T03:33:24.561Z,1.63
2023-08-31T03:33:57.069Z,1.70
2023-08-31T03:34:33.520Z,1.50
2023-08-31T03:35:07.323Z,1.67
2023-08-31T03:35:39.993Z,1.40
2023-08-31T03:36:13.493Z,1.73
2023-08-31T03:36:48.498Z,1.60
2023-08-31T03:37:23.205Z,1.50
2023-08-31T03:37:56.083Z,1.73
2023-08-31T03:38:31.357Z,1.43
2023-08-31T03:39:05.962Z,1.50
2023-08-31T03:39:38.527Z,1.60
2023-08-31T03:40:13.955Z,1.70
2023-08-31T03:40:56.815Z,1.77
2023-08-31T03:41:29.449Z,1.53
2023-08-31T03:42:04.424Z,1.70
2023-08-31T03:42:37.573Z,1.60
2023-08-31T03:43:12.079Z,1.30
2023-08-31T03:43:45.401Z,1.73
2023-08-31T03:44:20.504Z,1.80
2023-08-31T03:44:52.865Z,1.40
2023-08-31T03:45:25.280Z,1.63
2023-08-31T03:45:58.403Z,1.60
2023-08-31T03:46:33.752Z,1.60
2023-08-31T03:47:06.625Z,1.63
2023-08-31T03:47:39.209Z,1.60
2023-08-31T03:48:11.597Z,2.00
2023-08-31T03:48:46.630Z,1.70
2023-08-31T03:49:19.067Z,1.87
2023-08-31T03:49:51.679Z,1.60
2023-08-31T03:50:24.065Z,1.37
2023-08-31T03:50:59.393Z,1.70
2023-08-31T03:51:31.765Z,1.60
2023-08-31T03:52:05.012Z,1.83
2023-08-31T03:52:37.920Z,1.50
2023-08-31T03:53:10.617Z,1.80
2023-08-31T03:53:46.255Z,1.60
2023-08-31T03:54:18.831Z,1.80
2023-08-31T03:54:53.789Z,1.70
2023-08-31T03:55:27.723Z,1.40
2023-08-31T03:56:05.813Z,1.83
2023-08-31T03:56:38.768Z,1.50
2023-08-31T03:57:11.135Z,1.60
2023-08-31T03:57:46.181Z,1.70
2023-08-31T03:58:23.545Z,1.80
2023-08-31T03:58:57.820Z,1.80
2023-08-31T03:59:30.192Z,1.40
2023-08-31T04:00:09.966Z,1.57
2023-08-31T04:00:46.474Z,1.67
2023-08-31T04:01:19.173Z,1.57
2023-08-31T04:01:52.217Z,1.33
2023-08-31T04:02:28.453Z,1.33
2023-08-31T04:03:02.531Z,1.60
2023-08-31T04:03:35.316Z,1.43
2023-08-31T04:04:07.816Z,1.40
2023-08-31T04:04:42.870Z,1.70
2023-08-31T04:05:16.515Z,2.10
2023-08-31T04:05:49.987Z,1.43
2023-08-31T04:06:22.345Z,1.70
2023-08-31T04:06:57.514Z,1.80
2023-08-31T04:07:30.230Z,1.47
2023-08-31T04:08:02.714Z,1.70
2023-08-31T04:08:37.765Z,1.60
2023-08-31T04:09:10.255Z,1.70
2023-08-31T04:09:42.623Z,1.50
2023-08-31T04:10:15.213Z,1.50
2023-08-31T04:10:50.169Z,1.67
2023-08-31T04:11:26.577Z,1.40
2023-08-31T04:11:58.947Z,1.40
2023-08-31T04:12:31.886Z,1.60
2023-08-31T04:13:08.355Z,1.40
2023-08-31T04:13:40.794Z,1.53
2023-08-31T04:14:14.653Z,1.50
2023-08-31T04:14:47.083Z,1.53
2023-08-31T04:15:22.124Z,1.40
2023-08-31T04:15:54.734Z,1.57
2023-08-31T04:16:27.167Z,1.10
2023-08-31T04:16:59.538Z,1.70
2023-08-31T04:17:34.797Z,1.57
2023-08-31T04:18:07.385Z,1.50
2023-08-31T04:18:39.843Z,1.57
2023-08-31T04:19:12.377Z,1.60
2023-08-31T04:19:47.357Z,1.30
2023-08-31T04:20:19.778Z,1.20
2023-08-31T04:20:53.463Z,1.43
2023-08-31T04:21:28.440Z,1.53
2023-08-31T04:22:00.778Z,1.43
2023-08-31T04:22:33.139Z,1.50
2023-08-31T04:23:05.639Z,1.50
2023-08-31T04:23:40.676Z,1.23
2023-08-31T04:24:13.090Z,1.07
2023-08-31T04:24:45.584Z,1.33
2023-08-31T04:25:18.125Z,1.50
2023-08-31T04:25:54.687Z,1.70
2023-08-31T04:26:30.779Z,1.50
2023-08-31T04:27:03.123Z,1.60
2023-08-31T04:27:40.466Z,1.50
2023-08-31T04:28:12.826Z,1.53
2023-08-31T04:28:45.227Z,1.23
2023-08-31T04:29:20.820Z,1.90
2023-08-31T04:29:53.175Z,1.50
2023-08-31T04:30:25.658Z,1.60
2023-08-31T04:31:00.597Z,2.00
2023-08-31T04:31:33.138Z,1.57
2023-08-31T04:32:06.492Z,1.47
2023-08-31T04:32:39.006Z,1.57
2023-08-31T04:33:14.274Z,1.50
2023-08-31T04:33:47.146Z,1.40
2023-08-31T04:34:19.494Z,1.50
2023-08-31T04:34:56.624Z,1.63
2023-08-31T04:35:29.971Z,1.70
2023-08-31T04:36:02.584Z,1.60
2023-08-31T04:36:35.184Z,1.50
2023-08-31T04:37:10.240Z,1.50
2023-08-31T04:37:42.590Z,1.53
2023-08-31T04:38:14.920Z,1.67
2023-08-31T04:38:47.341Z,1.77
2023-08-31T04:39:22.375Z,1.70
2023-08-31T04:39:54.975Z,1.20
2023-08-31T04:40:28.912Z,1.50
2023-08-31T04:41:01.641Z,1.40
2023-08-31T04:41:39.195Z,1.80
2023-08-31T04:42:11.625Z,1.60
2023-08-31T04:42:44.012Z,1.67
2023-08-31T04:43:16.367Z,1.37
2023-08-31T04:43:51.889Z,1.53
2023-08-31T04:44:24.258Z,1.80
2023-08-31T04:44:56.614Z,1.67
2023-08-31T04:45:29.057Z,1.57
2023-08-31T04:46:05.306Z,1.40
2023-08-31T04:46:37.738Z,1.60
2023-08-31T04:47:10.098Z,1.67
2023-08-31T04:47:45.381Z,1.50
2023-08-31T04:48:17.810Z,1.80
2023-08-31T04:48:50.154Z,1.47
2023-08-31T04:49:25.237Z,1.23
2023-08-31T04:49:58.619Z,1.50
2023-08-31T04:50:31.338Z,1.53
2023-08-31T04:51:05.336Z,1.30
2023-08-31T04:51:43.073Z,1.50
2023-08-31T04:52:15.435Z,1.67
2023-08-31T04:52:47.779Z,1.70
2023-08-31T04:53:20.148Z,1.57
2023-08-31T04:53:55.122Z,1.60
2023-08-31T04:54:27.496Z,1.90
2023-08-31T04:55:02.708Z,1.60
2023-08-31T04:55:35.175Z,1.70
2023-08-31T04:56:10.146Z,1.50
2023-08-31T04:56:45.092Z,1.73
2023-08-31T04:57:17.510Z,1.30
2023-08-31T04:57:49.912Z,1.60
2023-08-31T04:58:24.969Z,1.50
2023-08-31T04:58:57.342Z,1.60
2023-08-31T04:59:30.123Z,2.07
2023-08-31T05:00:02.769Z,1.50
2023-08-31T05:00:37.739Z,1.53
2023-08-31T05:01:10.918Z,1.50
2023-08-31T05:01:44.346Z,1.60
2023-08-31T05:02:20.292Z,1.37
2023-08-31T05:02:52.704Z,1.10
2023-08-31T05:03:25.221Z,1.37
2023-08-31T05:03:57.615Z,1.37
2023-08-31T05:04:32.575Z,1.33
2023-08-31T05:05:06.194Z,1.53
2023-08-31T05:05:38.601Z,1.30
2023-08-31T05:06:13.656Z,1.27
2023-08-31T05:06:46.102Z,2.07
2023-08-31T05:07:18.474Z,1.77
2023-08-31T05:07:53.431Z,1.30
2023-08-31T05:08:25.803Z,1.37
2023-08-31T05:08:58.232Z,1.37
2023-08-31T05:09:33.576Z,1.53
2023-08-31T05:10:10.408Z,1.40
2023-08-31T05:10:42.863Z,1.67
2023-08-31T05:11:15.234Z,1.50
2023-08-31T05:11:50.189Z,1.60
2023-08-31T05:12:25.172Z,1.37
2023-08-31T05:12:57.667Z,1.30
2023-08-31T05:13:30.061Z,1.57
2023-08-31T05:14:02.414Z,1.37
2023-08-31T05:14:38.550Z,1.23
2023-08-31T05:15:11.545Z,1.50
2023-08-31T05:15:43.909Z,1.47
2023-08-31T05:16:16.321Z,1.30
2023-08-31T05:16:51.449Z,1.30
2023-08-31T05:17:23.994Z,1.30
2023-08-31T05:17:56.402Z,1.67
2023-08-31T05:18:31.404Z,1.43
2023-08-31T05:19:04.132Z,1.30
2023-08-31T05:19:36.508Z,1.47
2023-08-31T05:20:12.881Z,1.60
2023-08-31T05:20:46.547Z,1.60
2023-08-31T05:21:18.933Z,1.47
2023-08-31T05:21:51.269Z,1.67
2023-08-31T05:22:26.372Z,1.63
2023-08-31T05:22:59.026Z,1.57
2023-08-31T05:23:31.577Z,1.30
2023-08-31T05:24:07.122Z,1.53
2023-08-31T05:24:39.744Z,1.30
2023-08-31T05:25:12.096Z,1.33
2023-08-31T05:25:44.582Z,1.30
2023-08-31T05:26:19.504Z,1.40
2023-08-31T05:26:54.508Z,1.43
2023-08-31T05:27:26.845Z,1.27
2023-08-31T05:28:01.810Z,1.30
2023-08-31T05:28:34.246Z,1.43
2023-08-31T05:29:06.670Z,1.33
2023-08-31T05:29:39.018Z,1.47
2023-08-31T05:30:14.628Z,1.23
2023-08-31T05:30:51.319Z,1.40
2023-08-31T05:31:23.746Z,1.20
2023-08-31T05:31:56.130Z,1.23
2023-08-31T05:32:32.686Z,1.20
2023-08-31T05:33:06.178Z,1.23
2023-08-31T05:33:38.732Z,1.13
2023-08-31T05:34:14.399Z,1.20
2023-08-31T05:34:46.893Z,1.20
2023-08-31T05:35:19.507Z,1.37
2023-08-31T05:35:51.854Z,1.23
2023-08-31T05:36:27.880Z,1.40
2023-08-31T05:37:00.303Z,1.30
2023-08-31T05:37:34.288Z,1.40
2023-08-31T05:38:06.647Z,1.20
2023-08-31T05:38:41.686Z,1.50
2023-08-31T05:39:14.093Z,1.50
2023-08-31T05:39:49.491Z,1.10
2023-08-31T05:40:22.996Z,1.30
2023-08-31T05:40:57.959Z,1.10
2023-08-31T05:41:30.321Z,1.57
2023-08-31T05:42:05.856Z,1.40
2023-08-31T05:42:38.259Z,1.20
2023-08-31T05:43:13.464Z,1.33
2023-08-31T05:43:46.935Z,1.33
2023-08-31T05:44:19.344Z,1.37
2023-08-31T05:44:51.693Z,1.20
2023-08-31T05:45:26.709Z,1.43
2023-08-31T05:45:59.055Z,1.60
2023-08-31T05:46:31.448Z,1.47
2023-08-31T05:47:04.835Z,1.57
2023-08-31T05:47:39.940Z,1.60
2023-08-31T05:48:12.535Z,1.30
2023-08-31T05:48:45.094Z,1.33
2023-08-31T05:49:20.160Z,1.50
2023-08-31T05:49:52.730Z,1.60
2023-08-31T05:50:25.208Z,1.30
2023-08-31T05:51:00.144Z,1.27
2023-08-31T05:51:32.537Z,1.50
2023-08-31T05:52:05.741Z,2.20
2023-08-31T05:52:38.603Z,2.20
2023-08-31T05:53:13.837Z,1.77
2023-08-31T05:53:46.392Z,1.70
2023-08-31T05:54:18.755Z,1.33
2023-08-31T05:54:52.148Z,1.33
2023-08-31T05:55:28.254Z,1.70
2023-08-31T05:56:04.756Z,1.50
2023-08-31T05:56:37.166Z,1.13
2023-08-31T05:57:12.720Z,1.40
2023-08-31T05:57:47.722Z,1.20
2023-08-31T05:58:20.069Z,1.47
2023-08-31T05:58:56.196Z,1.30
2023-08-31T05:59:31.167Z,1.50
2023-08-31T06:00:03.804Z,1.30
2023-08-31T06:00:45.055Z,1.50
2023-08-31T06:01:20.152Z,1.20
2023-08-31T06:01:55.007Z,1.37
2023-08-31T06:02:29.444Z,1.20
2023-08-31T06:03:01.876Z,1.50
2023-08-31T06:03:37.799Z,1.20
2023-08-31T06:04:10.658Z,1.20
2023-08-31T06:04:43.073Z,1.77
2023-08-31T06:05:17.653Z,1.37
2023-08-31T06:05:53.016Z,1.30
2023-08-31T06:06:25.465Z,1.33
2023-08-31T06:06:57.815Z,1.20
2023-08-31T06:07:30.428Z,1.43
2023-08-31T06:08:05.385Z,1.50
2023-08-31T06:08:37.778Z,1.30
2023-08-31T06:09:10.171Z,1.20
2023-08-31T06:09:45.225Z,1.00
2023-08-31T06:10:17.906Z,1.40
2023-08-31T06:10:50.453Z,1.20
2023-08-31T06:11:22.804Z,1.20
2023-08-31T06:11:57.753Z,1.10
2023-08-31T06:12:32.807Z,1.30
2023-08-31T06:13:05.508Z,1.17
2023-08-31T06:13:41.349Z,1.20
2023-08-31T06:14:13.744Z,1.23
2023-08-31T06:14:46.085Z,1.33
2023-08-31T06:15:21.324Z,1.30
2023-08-31T06:15:53.768Z,1.20
2023-08-31T06:16:26.298Z,1.20
2023-08-31T06:17:01.314Z,1.50
2023-08-31T06:17:33.789Z,1.23
2023-08-31T06:18:07.235Z,1.37
2023-08-31T06:18:39.623Z,1.30
2023-08-31T06:19:16.656Z,1.50
2023-08-31T06:19:49.197Z,1.23
2023-08-31T06:20:21.555Z,1.50
2023-08-31T06:20:53.975Z,1.00
2023-08-31T06:21:28.926Z,1.30
2023-08-31T06:22:01.280Z,1.13
2023-08-31T06:22:33.803Z,1.23
2023-08-31T06:23:06.280Z,1.30
2023-08-31T06:23:41.246Z,1.20
2023-08-31T06:24:14.485Z,1.20
2023-08-31T06:24:47.064Z,1.10
2023-08-31T06:25:25.563Z,1.40
2023-08-31T06:25:58.122Z,1.17
2023-08-31T06:26:30.472Z,1.30
2023-08-31T06:27:02.879Z,1.20
2023-08-31T06:27:37.894Z,1.40
2023-08-31T06:28:13.490Z,1.37
2023-08-31T06:28:45.822Z,1.13
2023-08-31T06:29:18.186Z,1.37
2023-08-31T06:29:53.171Z,1.40
2023-08-31T06:30:25.926Z,1.10
2023-08-31T06:30:59.350Z,1.10
2023-08-31T06:31:34.340Z,1.23
2023-08-31T06:32:07.536Z,1.23
2023-08-31T06:32:40.183Z,1.27
2023-08-31T06:33:15.451Z,1.20
2023-08-31T06:33:48.217Z,1.10
2023-08-31T06:34:20.623Z,1.30
2023-08-31T06:34:56.706Z,1.33
2023-08-31T06:35:29.093Z,1.30
2023-08-31T06:36:01.433Z,1.30
2023-08-31T06:36:36.434Z,1.10
2023-08-31T06:37:08.822Z,1.30
2023-08-31T06:37:41.747Z,1.10
2023-08-31T06:38:14.086Z,1.30
2023-08-31T06:38:49.061Z,1.10
2023-08-31T06:39:21.410Z,1.30
2023-08-31T06:39:53.787Z,1.13
2023-08-31T06:40:26.202Z,1.20
2023-08-31T06:41:02.315Z,1.23
2023-08-31T06:41:35.056Z,1.33
2023-08-31T06:42:07.636Z,1.20
2023-08-31T06:42:45.278Z,1.17
2023-08-31T06:43:18.641Z,1.43
2023-08-31T06:43:50.969Z,1.10
2023-08-31T06:44:23.333Z,1.47
2023-08-31T06:44:58.772Z,1.40
2023-08-31T06:45:31.134Z,1.40
2023-08-31T06:46:18.525Z,1.30
2023-08-31T06:46:58.842Z,1.00
2023-08-31T06:47:31.261Z,1.30
2023-08-31T06:48:04.270Z,1.10
2023-08-31T06:48:39.275Z,1.13
2023-08-31T06:49:12.364Z,1.40
2023-08-31T06:49:44.773Z,1.30
2023-08-31T06:50:20.016Z,1.10
2023-08-31T06:50:52.407Z,1.20
2023-08-31T06:51:25.726Z,1.40
2023-08-31T06:52:00.759Z,1.20
2023-08-31T06:52:33.385Z,1.40
2023-08-31T06:53:05.829Z,1.30
2023-08-31T06:53:40.806Z,1.47
2023-08-31T06:54:13.970Z,1.30
2023-08-31T06:54:46.516Z,1.20
2023-08-31T06:55:18.880Z,1.60
2023-08-31T06:55:53.885Z,1.30
2023-08-31T06:56:26.276Z,1.30
2023-08-31T06:56:59.232Z,1.30
2023-08-31T06:57:31.637Z,1.03
2023-08-31T06:58:09.502Z,1.30
2023-08-31T06:58:41.968Z,1.37
2023-08-31T06:59:14.351Z,1.50
2023-08-31T06:59:48.499Z,1.30
2023-08-31T07:00:23.895Z,1.40
2023-08-31T07:00:56.235Z,1.70
2023-08-31T07:01:29.600Z,1.30
2023-08-31T07:02:02.007Z,1.60
2023-08-31T07:02:37.389Z,1.33
2023-08-31T07:03:10.010Z,1.10
2023-08-31T07:03:42.666Z,1.30
2023-08-31T07:04:15.143Z,1.07
2023-08-31T07:04:51.039Z,1.50
2023-08-31T07:05:27.141Z,1.30
2023-08-31T07:06:00.661Z,1.37
2023-08-31T07:06:34.901Z,1.40
2023-08-31T07:07:09.999Z,1.40
2023-08-31T07:07:42.727Z,0.93
2023-08-31T07:08:15.070Z,1.47
2023-08-31T07:08:48.514Z,1.53
2023-08-31T07:09:23.507Z,1.20
2023-08-31T07:09:56.151Z,1.60
2023-08-31T07:10:28.567Z,1.23
2023-08-31T07:11:03.585Z,1.70
2023-08-31T07:11:35.946Z,1.33
2023-08-31T07:12:08.379Z,1.53
2023-08-31T07:12:40.940Z,1.50
2023-08-31T07:13:18.562Z,1.60
2023-08-31T07:13:51.128Z,1.57
2023-08-31T07:14:23.486Z,1.30
2023-08-31T07:14:55.888Z,1.50
2023-08-31T07:15:32.550Z,1.40
2023-08-31T07:16:06.581Z,1.37
2023-08-31T07:16:39.012Z,1.50
2023-08-31T07:17:14.089Z,1.70
2023-08-31T07:17:46.583Z,1.50
2023-08-31T07:18:19.002Z,1.63
2023-08-31T07:18:51.530Z,1.60
2023-08-31T07:19:26.630Z,1.50
2023-08-31T07:19:59.053Z,1.70
2023-08-31T07:20:31.688Z,1.87
2023-08-31T07:21:07.446Z,1.20
2023-08-31T07:21:39.853Z,1.53
2023-08-31T07:22:12.212Z,1.50
2023-08-31T07:22:44.592Z,1.47
2023-08-31T07:23:19.552Z,1.40
2023-08-31T07:23:51.914Z,1.20
2023-08-31T07:24:24.637Z,1.50
2023-08-31T07:24:59.630Z,1.70
2023-08-31T07:25:31.978Z,1.23
2023-08-31T07:26:06.004Z,1.40
2023-08-31T07:26:40.994Z,1.67
2023-08-31T07:27:13.402Z,1.40
2023-08-31T07:27:45.892Z,1.40
2023-08-31T07:28:20.845Z,1.20
2023-08-31T07:28:55.801Z,1.30
2023-08-31T07:29:28.157Z,1.57
2023-08-31T07:30:00.604Z,1.30
2023-08-31T07:30:35.579Z,1.13
2023-08-31T07:31:08.445Z,1.10
2023-08-31T07:31:40.939Z,1.40
2023-08-31T07:32:15.924Z,1.20
2023-08-31T07:32:48.541Z,1.37
2023-08-31T07:33:31.081Z,1.17